Time;durP1;ratioP1;P1;durP2;ratioP2;P2;SDS_P1;SDS_P2;PMS_P1;PMS_P2;Temp;Humidity;BMP_temperature;BMP_pressure;BME280_temperature;BME280_humidity;BME280_pressure;Samples;Min_cycle;Max_cycle;Signal;HPM_P1;HPM_P2
2022/10/03 00:01:26;;;;;;;10.43;2.55;;;;;;;;;;5011795;28;20799;-62
2022/10/03 00:04:07;;;;;;;12.80;3.10;;;;;;;;;;5011704;28;20299;-62
2022/10/03 00:06:38;;;;;;;12.50;2.85;;;;;;;;;;5010815;28;20254;-62
2022/10/03 00:09:13;;;;;;;13.13;2.80;;;;;;;;;;5010881;28;20545;-61
2022/10/03 00:11:44;;;;;;;12.88;2.90;;;;;;;;;;5010376;28;20287;-62
2022/10/03 00:14:16;;;;;;;12.80;2.83;;;;;;;;;;5012064;28;20228;-62
2022/10/03 00:16:52;;;;;;;13.95;3.00;;;;;;;;;;5012206;28;20216;-62
2022/10/03 00:19:35;;;;;;;15.52;2.88;;;;;;;;;;5011208;28;20277;-60
2022/10/03 00:22:21;;;;;;;14.88;3.03;;;;;;;;;;5011825;28;20223;-61
2022/10/03 00:24:56;;;;;;;11.77;2.75;;;;;;;;;;5011173;28;20220;-62
2022/10/03 00:27:27;;;;;;;10.50;2.45;;;;;;;;;;5011685;28;20226;-62
2022/10/03 00:30:00;;;;;;;11.32;2.60;;;;;;;;;;5012121;28;20295;-61
2022/10/03 00:32:30;;;;;;;15.00;2.50;;;;;;;;;;5009979;28;20267;-61
2022/10/03 00:34:55;;;;;;;15.70;3.10;;;;;;;;;;5012128;28;20220;-61
2022/10/03 00:37:33;;;;;;;15.48;2.83;;;;;;;;;;5011479;28;20556;-62
2022/10/03 00:40:21;;;;;;;10.40;3.20;;;;;;;;;;5010214;28;20233;-62
2022/10/03 00:42:47;;;;;;;16.08;2.83;;;;;;;;;;5010652;28;20209;-62
2022/10/03 00:45:20;;;;;;;15.27;3.40;;;;;;;;;;5011641;28;20220;-62
2022/10/03 00:47:49;;;;;;;15.27;3.00;;;;;;;;;;5010219;28;20291;-62
2022/10/03 00:50:20;;;;;;;18.15;3.25;;;;;;;;;;5011880;28;20208;-62
2022/10/03 00:52:49;;;;;;;13.35;2.80;;;;;;;;;;5011976;28;20575;-62
2022/10/03 00:55:25;;;;;;;9.53;2.57;;;;;;;;;;5009304;28;20228;-62
2022/10/03 00:57:51;;;;;;;16.75;3.25;;;;;;;;;;5013296;28;20212;-62
2022/10/03 01:00:18;;;;;;;13.23;3.00;;;;;;;;;;5014198;28;20232;-62
2022/10/03 01:02:49;;;;;;;13.27;2.80;;;;;;;;;;5014133;28;20263;-62
2022/10/03 01:05:18;;;;;;;13.75;2.40;;;;;;;;;;5014797;28;20217;-62
2022/10/03 01:07:55;;;;;;;11.85;2.63;;;;;;;;;;5013390;28;20217;-61
2022/10/03 01:10:34;;;;;;;9.75;2.33;;;;;;;;;;5013766;28;20247;-62
2022/10/03 01:13:20;;;;;;;10.25;2.60;;;;;;;;;;5015153;28;20745;-61
2022/10/03 01:15:59;;;;;;;10.55;2.78;;;;;;;;;;5013011;28;20227;-59
2022/10/03 01:18:25;;;;;;;10.13;2.67;;;;;;;;;;5014704;28;20663;-60
2022/10/03 01:20:54;;;;;;;15.45;2.90;;;;;;;;;;5014853;28;20261;-59
2022/10/03 01:23:37;;;;;;;12.43;2.53;;;;;;;;;;5012473;28;20686;-60
2022/10/03 01:26:14;;;;;;;14.60;2.50;;;;;;;;;;5013371;28;20597;-60
2022/10/03 01:31:39;;;;;;;14.45;3.40;;;;;;;;;;5014659;28;20230;-60
2022/10/03 01:34:12;;;;;;;14.43;2.55;;;;;;;;;;5014402;28;20212;-60
2022/10/03 01:36:38;;;;;;;11.45;2.65;;;;;;;;;;5012590;28;20244;-60
2022/10/03 01:39:14;;;;;;;14.13;2.50;;;;;;;;;;5014275;28;20240;-60
2022/10/03 01:41:49;;;;;;;12.00;2.60;;;;;;;;;;5014894;28;20220;-61
2022/10/03 01:44:23;;;;;;;13.70;3.20;;;;;;;;;;5012218;28;20295;-59
2022/10/03 01:46:52;;;;;;;13.32;2.80;;;;;;;;;;4998822;28;20243;-59
2022/10/03 01:49:21;;;;;;;15.20;3.10;;;;;;;;;;5001991;28;20227;-60
2022/10/03 01:51:59;;;;;;;13.50;2.90;;;;;;;;;;4992906;28;20354;-61
2022/10/03 01:54:29;;;;;;;10.48;2.55;;;;;;;;;;4990348;28;20783;-61
2022/10/03 01:56:57;;;;;;;11.02;2.90;;;;;;;;;;4989700;28;20231;-61
2022/10/03 01:59:28;;;;;;;10.73;2.72;;;;;;;;;;4996122;28;20228;-61
2022/10/03 02:01:54;;;;;;;14.93;3.00;;;;;;;;;;4997070;28;20999;-61
2022/10/03 02:04:26;;;;;;;16.98;3.10;;;;;;;;;;4996449;28;20304;-61
2022/10/03 02:06:54;;;;;;;13.15;2.78;;;;;;;;;;4997997;28;20225;-61
2022/10/03 02:09:33;;;;;;;18.48;3.00;;;;;;;;;;4994734;28;20223;-61
2022/10/03 02:12:00;;;;;;;11.82;2.58;;;;;;;;;;4995858;28;20299;-61
2022/10/03 02:14:29;;;;;;;14.18;2.63;;;;;;;;;;4990880;28;20588;-61
2022/10/03 02:16:57;;;;;;;12.40;2.50;;;;;;;;;;4989746;28;20557;-61
2022/10/03 02:19:25;;;;;;;15.65;2.65;;;;;;;;;;4989992;28;20237;-61
2022/10/03 02:21:51;;;;;;;14.00;3.45;;;;;;;;;;4997060;28;20220;-61
2022/10/03 02:24:22;;;;;;;14.85;3.47;;;;;;;;;;4995784;28;20258;-61
2022/10/03 02:26:53;;;;;;;12.30;2.40;;;;;;;;;;4995935;28;20216;-61
2022/10/03 02:29:30;;;;;;;8.60;2.97;;;;;;;;;;4995858;28;20812;-61
2022/10/03 02:32:15;;;;;;;8.93;2.47;;;;;;;;;;4996111;28;20216;-61
2022/10/03 02:34:47;;;;;;;14.02;2.50;;;;;;;;;;4997674;28;20382;-61
2022/10/03 02:37:26;;;;;;;11.60;2.65;;;;;;;;;;4989565;28;20247;-61
2022/10/03 02:39:57;;;;;;;11.18;2.90;;;;;;;;;;4989210;28;20220;-61
2022/10/03 02:42:37;;;;;;;12.73;3.20;;;;;;;;;;4989481;28;20239;-61
2022/10/03 02:45:09;;;;;;;11.43;2.78;;;;;;;;;;4997363;28;20212;-59
2022/10/03 02:47:39;;;;;;;10.32;2.55;;;;;;;;;;4995646;28;20466;-59
2022/10/03 02:50:18;;;;;;;12.20;3.55;;;;;;;;;;4995959;28;20628;-60
2022/10/03 02:52:54;;;;;;;13.63;2.92;;;;;;;;;;4995397;28;20691;-59
2022/10/03 02:55:23;;;;;;;11.02;2.50;;;;;;;;;;4994547;28;20286;-61
2022/10/03 02:58:04;;;;;;;8.70;2.00;;;;;;;;;;4994839;28;20228;-61
2022/10/03 03:00:47;;;;;;;9.95;3.08;;;;;;;;;;4988236;28;20232;-61
2022/10/03 03:03:20;;;;;;;12.32;2.83;;;;;;;;;;4988486;28;20650;-62
2022/10/03 03:05:56;;;;;;;12.40;3.20;;;;;;;;;;4991885;28;20441;-61
2022/10/03 03:08:48;;;;;;;8.48;2.60;;;;;;;;;;4996174;28;20690;-61
2022/10/03 03:11:15;;;;;;;11.55;2.70;;;;;;;;;;4997107;28;20227;-61
2022/10/03 03:13:41;;;;;;;11.48;2.47;;;;;;;;;;4996289;28;20244;-61
2022/10/03 03:16:25;;;;;;;11.15;3.22;;;;;;;;;;4996180;28;20339;-61
2022/10/03 03:19:01;;;;;;;14.02;3.20;;;;;;;;;;4996296;28;20224;-61
2022/10/03 03:21:32;;;;;;;15.20;2.85;;;;;;;;;;4990490;28;20220;-61
2022/10/03 03:24:09;;;;;;;9.57;2.78;;;;;;;;;;4989778;28;20315;-61
2022/10/03 03:26:39;;;;;;;13.88;3.10;;;;;;;;;;4988568;28;20633;-61
2022/10/03 03:29:10;;;;;;;6.97;2.42;;;;;;;;;;4993443;28;20219;-62
2022/10/03 03:31:35;;;;;;;11.63;2.78;;;;;;;;;;4996523;28;20608;-61
2022/10/03 03:34:01;;;;;;;9.18;2.50;;;;;;;;;;4996028;28;20219;-62
2022/10/03 03:36:27;;;;;;;14.90;2.53;;;;;;;;;;4995629;28;20216;-61
2022/10/03 03:38:59;;;;;;;8.60;2.78;;;;;;;;;;4997660;28;20303;-61
2022/10/03 03:41:35;;;;;;;8.82;2.40;;;;;;;;;;4996586;28;20244;-61
2022/10/03 03:44:24;;;;;;;11.88;2.70;;;;;;;;;;4992912;28;20227;-62
2022/10/03 03:46:59;;;;;;;10.88;2.70;;;;;;;;;;4988289;28;20274;-61
2022/10/03 03:49:28;;;;;;;10.23;2.33;;;;;;;;;;4988756;28;20792;-61
2022/10/03 03:51:59;;;;;;;10.60;3.17;;;;;;;;;;4994645;28;20217;-61
2022/10/03 03:54:30;;;;;;;12.73;3.00;;;;;;;;;;4999980;28;20738;-61
2022/10/03 03:57:04;;;;;;;7.82;2.47;;;;;;;;;;5000763;28;20219;-61
2022/10/03 03:59:36;;;;;;;10.60;2.55;;;;;;;;;;5000832;28;20235;-61
2022/10/03 04:02:07;;;;;;;9.35;2.15;;;;;;;;;;5002718;28;20311;-62
2022/10/03 04:04:41;;;;;;;10.00;2.67;;;;;;;;;;5002126;28;20220;-61
2022/10/03 04:07:13;;;;;;;10.23;2.80;;;;;;;;;;4995794;28;20208;-61
2022/10/03 04:09:44;;;;;;;11.15;2.92;;;;;;;;;;4985754;28;20232;-61
2022/10/03 04:12:14;;;;;;;9.82;2.60;;;;;;;;;;4989215;28;20259;-61
2022/10/03 04:14:51;;;;;;;13.60;2.92;;;;;;;;;;4994910;28;20200;-61
2022/10/03 04:20:13;;;;;;;11.77;2.50;;;;;;;;;;4993943;28;20267;-61
2022/10/03 04:22:46;;;;;;;9.38;2.47;;;;;;;;;;4996293;28;20317;-61
2022/10/03 04:25:14;;;;;;;11.98;2.33;;;;;;;;;;4995161;28;20225;-61
2022/10/03 04:27:41;;;;;;;11.18;2.65;;;;;;;;;;4995959;28;20303;-61
2022/10/03 04:30:14;;;;;;;10.32;2.08;;;;;;;;;;4990033;28;20579;-61
2022/10/03 04:32:44;;;;;;;13.32;2.80;;;;;;;;;;4989703;28;20229;-61
2022/10/03 04:35:24;;;;;;;12.98;2.80;;;;;;;;;;4991048;28;20318;-61
2022/10/03 04:37:49;;;;;;;10.45;2.22;;;;;;;;;;4997589;28;20219;-61
2022/10/03 04:40:21;;;;;;;7.55;2.15;;;;;;;;;;4998131;28;20228;-61
2022/10/03 04:42:58;;;;;;;12.40;2.30;;;;;;;;;;5000060;28;20216;-61
2022/10/03 04:45:23;;;;;;;12.80;2.33;;;;;;;;;;4998158;28;21189;-61
2022/10/03 04:47:48;;;;;;;14.18;2.40;;;;;;;;;;5000111;28;20295;-61
2022/10/03 04:50:24;;;;;;;12.15;2.53;;;;;;;;;;4999563;28;20259;-61
2022/10/03 04:52:50;;;;;;;11.70;2.63;;;;;;;;;;4992351;28;20216;-61
2022/10/03 04:55:34;;;;;;;8.98;2.42;;;;;;;;;;4991176;28;20228;-61
2022/10/03 04:58:14;;;;;;;11.70;2.60;;;;;;;;;;4992717;28;20258;-60
2022/10/03 05:00:49;;;;;;;8.80;2.05;;;;;;;;;;5005921;28;20247;-61
2022/10/03 05:03:19;;;;;;;14.13;2.60;;;;;;;;;;5008285;28;20554;-61
2022/10/03 05:05:47;;;;;;;9.85;2.13;;;;;;;;;;5008398;28;20431;-62
2022/10/03 05:08:30;;;;;;;8.65;2.55;;;;;;;;;;5006992;28;20217;-62
2022/10/03 05:11:14;;;;;;;12.07;2.17;;;;;;;;;;5008482;28;20227;-63
2022/10/03 05:13:43;;;;;;;9.63;2.08;;;;;;;;;;5008937;28;20275;-62
2022/10/03 05:16:22;;;;;;;10.07;2.50;;;;;;;;;;5007967;28;20272;-63
2022/10/03 05:18:50;;;;;;;8.15;2.20;;;;;;;;;;5009474;28;20216;-62
2022/10/03 05:21:21;;;;;;;13.27;2.50;;;;;;;;;;5008536;28;20228;-62
2022/10/03 05:23:54;;;;;;;10.23;2.38;;;;;;;;;;5009205;28;20213;-62
2022/10/03 05:26:23;;;;;;;8.80;2.60;;;;;;;;;;5008660;28;20239;-62
2022/10/03 05:28:51;;;;;;;9.13;2.58;;;;;;;;;;5008355;28;20212;-62
2022/10/03 05:31:26;;;;;;;11.55;2.60;;;;;;;;;;5007611;28;20229;-63
2022/10/03 05:34:11;;;;;;;11.20;2.50;;;;;;;;;;5008311;28;20212;-62
2022/10/03 05:36:42;;;;;;;10.27;2.63;;;;;;;;;;5006180;28;20462;-62
2022/10/03 05:39:13;;;;;;;9.55;2.30;;;;;;;;;;5008412;28;20295;-62
2022/10/03 05:41:39;;;;;;;7.53;2.40;;;;;;;;;;5008135;28;20216;-61
2022/10/03 05:44:15;;;;;;;11.18;3.05;;;;;;;;;;5007317;28;20204;-62
2022/10/03 05:46:45;;;;;;;7.97;2.63;;;;;;;;;;5007244;28;20219;-61
2022/10/03 05:49:22;;;;;;;7.38;2.33;;;;;;;;;;5004169;28;20744;-62
2022/10/03 05:51:48;;;;;;;8.32;2.70;;;;;;;;;;5006117;28;20200;-62
2022/10/03 05:54:27;;;;;;;8.70;2.60;;;;;;;;;;5008469;28;20209;-62
2022/10/03 05:57:00;;;;;;;10.93;2.60;;;;;;;;;;5004106;28;20507;-62
2022/10/03 05:59:34;;;;;;;12.30;3.08;;;;;;;;;;5006485;28;20217;-62
2022/10/03 06:02:08;;;;;;;11.32;2.60;;;;;;;;;;5013223;28;20201;-61
2022/10/03 06:04:34;;;;;;;9.98;3.13;;;;;;;;;;5007905;28;20212;-61
2022/10/03 06:07:04;;;;;;;11.25;3.08;;;;;;;;;;5012881;28;20205;-61
2022/10/03 06:09:48;;;;;;;10.32;3.00;;;;;;;;;;5014572;28;20216;-61
2022/10/03 06:12:17;;;;;;;10.80;2.95;;;;;;;;;;5012464;28;20236;-62
2022/10/03 06:14:59;;;;;;;9.98;2.08;;;;;;;;;;5009514;28;20235;-61
2022/10/03 06:17:30;;;;;;;12.63;2.50;;;;;;;;;;5011412;28;20212;-61
2022/10/03 06:19:56;;;;;;;13.23;2.42;;;;;;;;;;5023895;28;20318;-62
2022/10/03 06:22:32;;;;;;;8.65;2.28;;;;;;;;;;5033024;28;20417;-61
2022/10/03 06:24:58;;;;;;;8.00;2.05;;;;;;;;;;5033042;28;20209;-62
2022/10/03 06:27:31;;;;;;;8.23;2.20;;;;;;;;;;5026260;28;20711;-62
2022/10/03 06:29:59;;;;;;;10.15;2.72;;;;;;;;;;5017478;28;20210;-61
2022/10/03 06:32:25;;;;;;;9.25;1.55;;;;;;;;;;5021502;28;20215;-62
2022/10/03 06:35:00;;;;;;;12.02;2.75;;;;;;;;;;5033904;28;20226;-62
2022/10/03 06:37:42;;;;;;;12.52;3.00;;;;;;;;;;5031862;28;20215;-62
2022/10/03 06:40:30;;;;;;;10.15;2.58;;;;;;;;;;5031869;28;20558;-62
2022/10/03 06:43:15;;;;;;;15.60;2.92;;;;;;;;;;5032047;28;20239;-62
2022/10/03 06:46:00;;;;;;;13.07;3.50;;;;;;;;;;5031297;28;20689;-62
2022/10/03 06:48:39;;;;;;;13.15;4.03;;;;;;;;;;5031768;28;20666;-62
2022/10/03 06:51:15;;;;;;;18.55;4.72;;;;;;;;;;5033093;28;20218;-62
2022/10/03 06:53:50;;;;;;;16.63;4.45;;;;;;;;;;5030834;28;20646;-61
2022/10/03 06:56:16;;;;;;;16.13;3.08;;;;;;;;;;5025900;28;20220;-61
2022/10/03 06:58:42;;;;;;;11.10;3.13;;;;;;;;;;5012350;28;20243;-62
2022/10/03 07:01:13;;;;;;;13.63;3.38;;;;;;;;;;5030015;28;20262;-62
2022/10/03 07:03:51;;;;;;;10.25;3.20;;;;;;;;;;5033033;28;20208;-62
2022/10/03 07:06:28;;;;;;;12.30;3.65;;;;;;;;;;5030696;28;20258;-62
2022/10/03 07:08:56;;;;;;;12.85;3.10;;;;;;;;;;5006068;28;20258;-63
2022/10/03 07:11:27;;;;;;;13.55;3.22;;;;;;;;;;5006619;28;20220;-63
2022/10/03 07:13:53;;;;;;;14.85;3.35;;;;;;;;;;5004681;28;20295;-62
2022/10/03 07:16:29;;;;;;;16.80;3.72;;;;;;;;;;5007275;28;20300;-67
2022/10/03 07:19:03;;;;;;;15.98;3.47;;;;;;;;;;5006436;28;20516;-63
2022/10/03 07:21:38;;;;;;;13.80;3.25;;;;;;;;;;5004350;28;20215;-62
2022/10/03 07:24:11;;;;;;;12.82;3.45;;;;;;;;;;5004944;28;20222;-64
2022/10/03 07:26:43;;;;;;;11.68;3.38;;;;;;;;;;5007399;28;20217;-62
2022/10/03 07:29:16;;;;;;;11.88;2.70;;;;;;;;;;5004716;28;20296;-65
2022/10/03 07:31:41;;;;;;;14.95;3.47;;;;;;;;;;5006084;28;20220;-65
2022/10/03 07:34:25;;;;;;;13.93;3.58;;;;;;;;;;5006494;28;20216;-64
2022/10/03 07:40:11;;;;;;;10.98;2.70;;;;;;;;;;5006862;28;20332;-65
2022/10/03 07:42:41;;;;;;;12.32;3.08;;;;;;;;;;5005241;28;20232;-65
2022/10/03 07:45:10;;;;;;;9.52;2.67;;;;;;;;;;5005333;28;20557;-65
2022/10/03 07:47:51;;;;;;;7.45;2.60;;;;;;;;;;5005602;28;20228;-63
2022/10/03 07:50:30;;;;;;;9.10;2.50;;;;;;;;;;5005955;28;20586;-63
2022/10/03 07:53:03;;;;;;;11.02;2.83;;;;;;;;;;5005142;28;20216;-63
2022/10/03 07:55:28;;;;;;;9.25;3.08;;;;;;;;;;5005656;28;20731;-61
2022/10/03 07:57:57;;;;;;;13.32;4.05;;;;;;;;;;5007003;28;20216;-61
2022/10/03 08:00:23;;;;;;;12.02;3.20;;;;;;;;;;5006290;28;20274;-61
2022/10/03 08:03:07;;;;;;;8.38;3.05;;;;;;;;;;5005018;28;20224;-61
2022/10/03 08:05:35;;;;;;;12.75;3.55;;;;;;;;;;5006972;28;20224;-61
2022/10/03 08:08:04;;;;;;;10.15;3.35;;;;;;;;;;5009437;28;20247;-64
2022/10/03 08:10:45;;;;;;;12.35;3.15;;;;;;;;;;5010053;28;20216;-62
2022/10/03 08:13:15;;;;;;;10.45;2.63;;;;;;;;;;5001676;28;20208;-61
2022/10/03 08:15:49;;;;;;;9.55;2.10;;;;;;;;;;5022878;28;20392;-61
2022/10/03 08:18:21;;;;;;;7.00;2.20;;;;;;;;;;5027948;28;20208;-66
2022/10/03 08:20:57;;;;;;;7.70;2.28;;;;;;;;;;5009591;28;20247;-62
2022/10/03 08:23:29;;;;;;;8.60;3.50;;;;;;;;;;5009992;28;20216;-62
2022/10/03 08:26:06;;;;;;;9.07;2.70;;;;;;;;;;5010175;28;20228;-61
2022/10/03 08:28:40;;;;;;;7.72;2.75;;;;;;;;;;5006904;28;20216;-61
2022/10/03 08:31:11;;;;;;;7.65;2.65;;;;;;;;;;5009662;28;20307;-61
2022/10/03 08:33:46;;;;;;;7.20;2.45;;;;;;;;;;5010837;28;20785;-61
2022/10/03 08:36:30;;;;;;;7.75;2.63;;;;;;;;;;5010198;28;20228;-62
2022/10/03 08:39:01;;;;;;;9.35;2.80;;;;;;;;;;5009930;28;20219;-63
2022/10/03 08:41:32;;;;;;;8.05;2.85;;;;;;;;;;5010937;28;20225;-63
2022/10/03 08:44:21;;;;;;;10.30;2.67;;;;;;;;;;5011112;28;20200;-63
2022/10/03 08:47:01;;;;;;;8.07;3.00;;;;;;;;;;5009329;28;20212;-64
2022/10/03 08:49:27;;;;;;;7.55;2.30;;;;;;;;;;5009335;28;20586;-64
2022/10/03 08:52:06;;;;;;;9.85;2.10;;;;;;;;;;5009973;28;20212;-63
2022/10/03 08:54:50;;;;;;;6.47;2.30;;;;;;;;;;5009174;28;20631;-64
2022/10/03 08:57:19;;;;;;;7.90;2.72;;;;;;;;;;5009931;28;20220;-64
2022/10/03 08:59:44;;;;;;;7.93;2.50;;;;;;;;;;5009788;28;20232;-64
2022/10/03 09:02:10;;;;;;;7.32;2.65;;;;;;;;;;5010232;28;20223;-64
2022/10/03 09:04:53;;;;;;;6.07;2.55;;;;;;;;;;5010002;28;20516;-63
2022/10/03 09:07:23;;;;;;;7.95;2.58;;;;;;;;;;5008585;28;20220;-63
2022/10/03 09:10:06;;;;;;;9.43;3.13;;;;;;;;;;5010080;28;20501;-61
2022/10/03 09:12:31;;;;;;;10.43;2.88;;;;;;;;;;5007385;28;20219;-61
2022/10/03 09:15:12;;;;;;;10.15;2.38;;;;;;;;;;5009898;28;20220;-61
2022/10/03 09:17:56;;;;;;;8.38;2.08;;;;;;;;;;5007780;28;20223;-61
2022/10/03 09:20:32;;;;;;;11.23;2.55;;;;;;;;;;5008961;28;20227;-62
2022/10/03 09:22:57;;;;;;;9.95;2.10;;;;;;;;;;5009700;28;20723;-62
2022/10/03 09:25:41;;;;;;;6.97;2.35;;;;;;;;;;5009180;28;20223;-62
2022/10/03 09:28:08;;;;;;;9.18;2.35;;;;;;;;;;5008163;28;20207;-62
2022/10/03 09:30:46;;;;;;;9.57;2.38;;;;;;;;;;5009717;28;20220;-61
2022/10/03 09:33:30;;;;;;;10.30;2.15;;;;;;;;;;5008250;28;20228;-61
2022/10/03 09:35:57;;;;;;;11.05;2.97;;;;;;;;;;5009618;28;20239;-61
2022/10/03 09:38:25;;;;;;;9.48;2.15;;;;;;;;;;5009379;28;20683;-64
2022/10/03 09:41:06;;;;;;;7.43;1.95;;;;;;;;;;5008975;28;20233;-64
2022/10/03 09:43:37;;;;;;;8.80;2.38;;;;;;;;;;5009422;28;20216;-64
2022/10/03 09:46:12;;;;;;;9.52;2.40;;;;;;;;;;5008158;28;20216;-64
2022/10/03 09:48:40;;;;;;;10.60;2.30;;;;;;;;;;5007749;28;20212;-64
2022/10/03 09:51:23;;;;;;;12.60;2.35;;;;;;;;;;5007399;28;20204;-64
2022/10/03 09:53:55;;;;;;;8.52;2.50;;;;;;;;;;5008635;28;20220;-64
2022/10/03 09:56:36;;;;;;;11.85;2.55;;;;;;;;;;5008220;28;20233;-64
2022/10/03 09:59:17;;;;;;;10.75;2.75;;;;;;;;;;5007735;28;20224;-63
2022/10/03 10:01:47;;;;;;;8.02;2.05;;;;;;;;;;5008582;28;20232;-65
2022/10/03 10:04:18;;;;;;;5.85;1.90;;;;;;;;;;5007725;28;20216;-63
2022/10/03 10:07:03;;;;;;;7.72;2.05;;;;;;;;;;5007448;28;20271;-63
2022/10/03 10:09:38;;;;;;;7.65;1.90;;;;;;;;;;5006475;28;20224;-64
2022/10/03 10:12:10;;;;;;;7.00;1.80;;;;;;;;;;5006972;28;20658;-63
2022/10/03 10:14:41;;;;;;;7.45;2.33;;;;;;;;;;5008810;28;20583;-64
2022/10/03 10:17:16;;;;;;;8.30;1.85;;;;;;;;;;5007228;28;20742;-65
2022/10/03 10:19:41;;;;;;;6.78;1.55;;;;;;;;;;5008560;28;20227;-65
2022/10/03 10:22:18;;;;;;;6.78;1.65;;;;;;;;;;5008147;28;20495;-66
2022/10/03 10:24:51;;;;;;;8.38;1.52;;;;;;;;;;5006999;28;20208;-65
2022/10/03 10:27:23;;;;;;;9.13;1.60;;;;;;;;;;5008077;28;20695;-65
2022/10/03 10:29:49;;;;;;;8.68;1.48;;;;;;;;;;5006787;28;20279;-64
2022/10/03 10:32:21;;;;;;;6.50;1.30;;;;;;;;;;5007882;28;20213;-62
2022/10/03 10:35:05;;;;;;;6.97;1.63;;;;;;;;;;5008051;28;20220;-63
2022/10/03 10:37:53;;;;;;;5.13;1.50;;;;;;;;;;5007156;28;20215;-62
2022/10/03 10:40:25;;;;;;;7.82;1.70;;;;;;;;;;5006266;28;20216;-61
2022/10/03 10:43:05;;;;;;;7.25;1.40;;;;;;;;;;5006716;28;20267;-62
2022/10/03 10:45:44;;;;;;;9.95;2.15;;;;;;;;;;5006154;28;20226;-62
2022/10/03 10:48:17;;;;;;;6.90;1.42;;;;;;;;;;5006202;28;20217;-61
2022/10/03 10:50:51;;;;;;;7.63;1.40;;;;;;;;;;5006256;28;20254;-62
2022/10/03 10:53:38;;;;;;;8.13;1.90;;;;;;;;;;5006371;28;20209;-61
2022/10/03 10:56:23;;;;;;;8.98;1.90;;;;;;;;;;5006334;28;20802;-62
2022/10/03 10:59:04;;;;;;;9.25;1.88;;;;;;;;;;5007028;28;20217;-61
2022/10/03 11:01:34;;;;;;;9.63;1.77;;;;;;;;;;5006287;28;20212;-61
2022/10/03 11:04:06;;;;;;;6.38;1.70;;;;;;;;;;5007391;28;20212;-63
2022/10/03 11:06:52;;;;;;;7.75;1.70;;;;;;;;;;5005345;28;20236;-64
2022/10/03 11:09:27;;;;;;;9.25;2.50;;;;;;;;;;5005716;28;20493;-64
2022/10/03 11:11:53;;;;;;;9.25;1.98;;;;;;;;;;5006090;28;20227;-63
2022/10/03 11:14:54;;;;;;;8.82;1.90;;;;;;;;;;5006855;28;20307;-63
2022/10/03 11:17:30;;;;;;;7.88;1.70;;;;;;;;;;5007308;28;20273;-63
2022/10/03 11:19:55;;;;;;;7.63;1.65;;;;;;;;;;4987110;28;20221;-62
2022/10/03 11:22:33;;;;;;;7.10;2.05;;;;;;;;;;4987569;28;20561;-63
2022/10/03 11:25:21;;;;;;;5.97;1.60;;;;;;;;;;4986506;28;20213;-63
2022/10/03 11:28:05;;;;;;;8.30;1.63;;;;;;;;;;4986734;28;20673;-63
2022/10/03 11:30:42;;;;;;;3.80;1.15;;;;;;;;;;5006968;28;20682;-62
2022/10/03 11:33:20;;;;;;;9.45;1.77;;;;;;;;;;5004617;28;20698;-62
2022/10/03 11:36:01;;;;;;;6.18;1.30;;;;;;;;;;5006051;28;20243;-62
2022/10/03 11:38:28;;;;;;;6.88;1.50;;;;;;;;;;5006978;28;20219;-63
2022/10/03 11:40:54;;;;;;;5.25;1.20;;;;;;;;;;5004918;28;20273;-62
2022/10/03 11:43:29;;;;;;;8.68;2.13;;;;;;;;;;5007086;28;20216;-63
2022/10/03 11:45:55;;;;;;;6.82;1.40;;;;;;;;;;5007130;28;20291;-63
2022/10/03 11:48:33;;;;;;;8.85;1.60;;;;;;;;;;5004442;28;20208;-64
2022/10/03 11:51:02;;;;;;;8.77;1.52;;;;;;;;;;5006696;28;20308;-63
2022/10/03 11:53:28;;;;;;;10.45;2.20;;;;;;;;;;5005211;28;20212;-63
2022/10/03 11:56:03;;;;;;;7.95;1.40;;;;;;;;;;5006388;28;20220;-63
2022/10/03 11:58:49;;;;;;;10.40;1.42;;;;;;;;;;5005569;28;20235;-63
2022/10/03 12:01:32;;;;;;;12.02;2.10;;;;;;;;;;5004354;28;20282;-64
2022/10/03 12:04:06;;;;;;;5.63;1.15;;;;;;;;;;5005682;28;20710;-64
2022/10/03 12:09:24;;;;;;;14.77;1.80;;;;;;;;;;5005172;28;20239;-63
2022/10/03 12:11:50;;;;;;;8.60;1.73;;;;;;;;;;5006655;28;20200;-64
2022/10/03 12:14:23;;;;;;;10.50;1.40;;;;;;;;;;5006498;28;20216;-64
2022/10/03 12:16:56;;;;;;;8.20;1.80;;;;;;;;;;5004890;28;20212;-64
2022/10/03 12:19:29;;;;;;;7.90;1.40;;;;;;;;;;5005489;28;20228;-64
2022/10/03 12:21:56;;;;;;;6.88;1.15;;;;;;;;;;5005664;28;20212;-65
2022/10/03 12:24:28;;;;;;;6.10;1.35;;;;;;;;;;5004277;28;20220;-66
2022/10/03 12:27:00;;;;;;;8.30;2.05;;;;;;;;;;5005732;28;20548;-62
2022/10/03 12:29:25;;;;;;;7.03;1.70;;;;;;;;;;5005793;28;20212;-62
2022/10/03 12:31:51;;;;;;;7.22;1.40;;;;;;;;;;5020188;28;20216;-63
2022/10/03 12:34:36;;;;;;;5.78;1.20;;;;;;;;;;5025725;28;20215;-63
2022/10/03 12:37:12;;;;;;;6.38;1.30;;;;;;;;;;5025762;28;20215;-64
2022/10/03 12:39:43;;;;;;;7.72;1.65;;;;;;;;;;5025363;28;20219;-62
2022/10/03 12:42:16;;;;;;;4.35;1.20;;;;;;;;;;5024713;28;20230;-62
2022/10/03 12:44:48;;;;;;;5.55;1.73;;;;;;;;;;5025860;28;20246;-62
2022/10/03 12:47:21;;;;;;;5.38;1.20;;;;;;;;;;5025800;28;20216;-63
2022/10/03 12:49:52;;;;;;;6.50;1.48;;;;;;;;;;5025923;28;20244;-62
2022/10/03 12:52:20;;;;;;;7.25;1.10;;;;;;;;;;5024442;28;20261;-62
2022/10/03 12:54:48;;;;;;;5.25;1.10;;;;;;;;;;5016418;28;20682;-62
2022/10/03 12:57:22;;;;;;;5.47;1.20;;;;;;;;;;5011400;28;20227;-62
2022/10/03 13:00:01;;;;;;;5.25;1.10;;;;;;;;;;5016401;28;20216;-62
2022/10/03 13:02:29;;;;;;;6.20;1.27;;;;;;;;;;5008445;28;20299;-62
2022/10/03 13:04:58;;;;;;;5.85;1.15;;;;;;;;;;5007796;28;20298;-62
2022/10/03 13:07:40;;;;;;;5.18;1.00;;;;;;;;;;5009538;28;20266;-62
2022/10/03 13:10:18;;;;;;;5.35;1.38;;;;;;;;;;5008220;28;20311;-62
2022/10/03 13:12:49;;;;;;;6.80;1.00;;;;;;;;;;5008981;28;20216;-62
2022/10/03 13:15:18;;;;;;;5.55;1.23;;;;;;;;;;5009879;28;20220;-62
2022/10/03 13:17:48;;;;;;;4.97;1.00;;;;;;;;;;5009707;28;20217;-62
2022/10/03 13:20:18;;;;;;;6.32;1.05;;;;;;;;;;5007080;28;20228;-62
2022/10/03 13:23:05;;;;;;;4.90;1.00;;;;;;;;;;5008534;28;20220;-63
2022/10/03 13:25:34;;;;;;;6.13;1.23;;;;;;;;;;5008566;28;20643;-62
2022/10/03 13:28:15;;;;;;;4.32;1.05;;;;;;;;;;5008302;28;20216;-62
2022/10/03 13:30:44;;;;;;;3.40;1.00;;;;;;;;;;5008596;28;20239;-62
2022/10/03 13:33:12;;;;;;;6.35;1.27;;;;;;;;;;5007040;28;20299;-62
2022/10/03 13:35:58;;;;;;;6.68;1.27;;;;;;;;;;5008116;28;20221;-62
2022/10/03 13:38:25;;;;;;;4.68;1.45;;;;;;;;;;5008791;28;20242;-62
2022/10/03 13:40:53;;;;;;;5.25;1.15;;;;;;;;;;5009016;28;20254;-62
2022/10/03 13:43:20;;;;;;;8.05;1.10;;;;;;;;;;5009112;28;20263;-63
2022/10/03 13:45:46;;;;;;;5.10;1.00;;;;;;;;;;5008710;28;20343;-62
2022/10/03 13:48:13;;;;;;;3.30;0.90;;;;;;;;;;5008394;28;20221;-62
2022/10/03 13:50:42;;;;;;;5.57;1.08;;;;;;;;;;5008548;28;20292;-62
2022/10/03 13:53:10;;;;;;;5.68;1.42;;;;;;;;;;5009318;28;20248;-63
2022/10/03 13:55:44;;;;;;;7.57;1.23;;;;;;;;;;5007602;28;20224;-62
2022/10/03 13:58:10;;;;;;;7.43;1.25;;;;;;;;;;5008566;28;20308;-63
2022/10/03 14:00:46;;;;;;;6.40;1.42;;;;;;;;;;5009074;28;20220;-60
2022/10/03 14:03:14;;;;;;;8.75;1.40;;;;;;;;;;5006597;28;20223;-61
2022/10/03 14:05:44;;;;;;;5.10;1.20;;;;;;;;;;5007351;28;20675;-60
2022/10/03 14:08:22;;;;;;;6.00;1.17;;;;;;;;;;5007597;28;20220;-61
2022/10/03 14:10:51;;;;;;;6.68;1.27;;;;;;;;;;5008947;28;20750;-61
2022/10/03 14:13:18;;;;;;;6.28;1.17;;;;;;;;;;5008408;28;20220;-61
2022/10/03 14:15:51;;;;;;;6.50;1.48;;;;;;;;;;5008702;28;20212;-61
2022/10/03 14:18:20;;;;;;;8.85;1.60;;;;;;;;;;5008301;28;20220;-61
2022/10/03 14:20:51;;;;;;;7.72;1.58;;;;;;;;;;4987425;28;20722;-61
2022/10/03 14:23:25;;;;;;;4.35;1.40;;;;;;;;;;5006144;28;20271;-61
2022/10/03 14:25:55;;;;;;;6.55;1.17;;;;;;;;;;5007288;28;20541;-61
2022/10/03 14:28:29;;;;;;;7.13;1.35;;;;;;;;;;5008164;28;21238;-61
2022/10/03 14:30:55;;;;;;;8.35;1.38;;;;;;;;;;5006493;28;20231;-61
2022/10/03 14:33:26;;;;;;;5.45;1.10;;;;;;;;;;5008179;28;20228;-62
2022/10/03 14:36:02;;;;;;;7.28;1.80;;;;;;;;;;5008112;28;20212;-62
2022/10/03 14:38:57;;;;;;;7.28;1.45;;;;;;;;;;5005866;28;20252;-62
2022/10/03 14:41:32;;;;;;;7.90;1.55;;;;;;;;;;5007893;28;20235;-62
2022/10/03 14:43:59;;;;;;;9.35;1.65;;;;;;;;;;5010036;28;20287;-62
2022/10/03 14:46:25;;;;;;;8.60;1.52;;;;;;;;;;5010303;28;20227;-61
2022/10/03 14:48:52;;;;;;;6.28;1.48;;;;;;;;;;5007596;28;20278;-62
2022/10/03 14:51:19;;;;;;;6.28;1.60;;;;;;;;;;5005689;28;20223;-62
2022/10/03 14:53:46;;;;;;;9.48;1.70;;;;;;;;;;5006800;28;20614;-61
2022/10/03 14:56:11;;;;;;;6.68;1.73;;;;;;;;;;5006343;28;20228;-61
2022/10/03 14:58:37;;;;;;;8.98;1.50;;;;;;;;;;5007122;28;20251;-61
2022/10/03 15:01:02;;;;;;;7.95;1.40;;;;;;;;;;5001944;28;20363;-62
2022/10/03 15:03:29;;;;;;;6.50;1.50;;;;;;;;;;4988292;28;20213;-61
2022/10/03 15:05:56;;;;;;;5.93;1.63;;;;;;;;;;4993537;28;20434;-61
2022/10/03 15:08:21;;;;;;;6.13;1.65;;;;;;;;;;4995590;28;20232;-61
2022/10/03 15:10:47;;;;;;;7.00;1.30;;;;;;;;;;4998685;28;20217;-61
2022/10/03 15:13:12;;;;;;;7.65;1.20;;;;;;;;;;4999806;28;20240;-61
2022/10/03 15:15:38;;;;;;;5.35;1.30;;;;;;;;;;5000549;28;20583;-61
2022/10/03 15:18:05;;;;;;;8.90;1.67;;;;;;;;;;4999524;28;21005;-62
2022/10/03 15:20:35;;;;;;;6.03;1.35;;;;;;;;;;5000691;28;20236;-61
2022/10/03 15:23:01;;;;;;;8.65;1.40;;;;;;;;;;5000169;28;20923;-62